createdAt,value
2019-05-16T00:00:09.767Z,19.10
2019-05-16T00:02:38.659Z,19.10
2019-05-16T00:05:08.400Z,19.10
2019-05-16T00:07:38.987Z,19.10
2019-05-16T00:10:09.219Z,19.10
2019-05-16T00:12:39.942Z,19.10
2019-05-16T00:15:09.327Z,19.10
2019-05-16T00:17:38.810Z,19.20
2019-05-16T00:20:09.345Z,19.10
2019-05-16T00:22:39.397Z,19.10
2019-05-16T00:25:09.648Z,19.10
2019-05-16T00:27:38.793Z,19.20
2019-05-16T00:30:08.855Z,19.20
2019-05-16T00:32:39.143Z,19.20
2019-05-16T00:35:09.289Z,19.10
2019-05-16T00:37:39.074Z,19.10
2019-05-16T00:40:08.536Z,19.10
2019-05-16T00:42:39.020Z,19.10
2019-05-16T00:45:09.277Z,19.10
2019-05-16T00:47:38.951Z,19.10
2019-05-16T00:50:09.551Z,19.10
2019-05-16T00:52:39.476Z,19.10
2019-05-16T00:55:08.509Z,19.10
2019-05-16T00:57:38.931Z,19.10
2019-05-16T01:00:09.104Z,19.10
2019-05-16T01:02:38.240Z,19.10
2019-05-16T01:05:08.530Z,19.10
2019-05-16T01:07:39.128Z,19.10
2019-05-16T01:10:09.170Z,19.10
2019-05-16T01:12:39.120Z,19.10
2019-05-16T01:15:08.209Z,19.10
2019-05-16T01:17:38.967Z,19.10
2019-05-16T01:20:08.529Z,19.10
2019-05-16T01:22:38.449Z,19.10
2019-05-16T01:25:09.471Z,19.10
2019-05-16T01:27:38.634Z,19.10
2019-05-16T01:30:09.111Z,19.10
2019-05-16T01:32:39.455Z,19.00
2019-05-16T01:35:08.444Z,19.10
2019-05-16T01:37:38.463Z,19.10
2019-05-16T01:40:08.140Z,19.10
2019-05-16T01:42:38.632Z,19.10
2019-05-16T01:45:08.260Z,19.10
2019-05-16T01:47:39.069Z,19.10
2019-05-16T01:50:08.697Z,19.10
2019-05-16T01:52:38.449Z,19.10
2019-05-16T01:55:08.215Z,19.10
2019-05-16T01:57:39.102Z,19.10
2019-05-16T02:00:08.729Z,19.10
2019-05-16T02:02:38.575Z,19.10
2019-05-16T02:05:08.312Z,19.10
2019-05-16T02:07:38.739Z,19.10
2019-05-16T02:10:08.569Z,19.10
2019-05-16T02:12:38.387Z,19.10
2019-05-16T02:15:07.875Z,19.00
2019-05-16T02:17:38.337Z,19.10
2019-05-16T02:20:08.682Z,19.00
2019-05-16T02:22:38.901Z,19.00
2019-05-16T02:25:08.443Z,19.10
2019-05-16T02:27:38.123Z,19.10
2019-05-16T02:30:07.508Z,19.00
2019-05-16T02:32:36.072Z,19.00
2019-05-16T02:35:04.991Z,19.00
2019-05-16T02:37:35.041Z,19.10
2019-05-16T02:40:05.599Z,19.10
2019-05-16T02:42:34.240Z,19.10
2019-05-16T02:45:02.912Z,19.10
2019-05-16T02:47:35.111Z,19.10
2019-05-16T02:50:02.206Z,19.10
2019-05-16T02:52:31.715Z,19.10
2019-05-16T02:55:01.115Z,19.10
2019-05-16T02:57:31.640Z,19.10
2019-05-16T03:00:01.728Z,19.10
2019-05-16T03:02:31.343Z,19.10
2019-05-16T03:05:00.963Z,19.10
2019-05-16T03:07:41.049Z,19.00
2019-05-16T03:10:01.552Z,19.00
2019-05-16T03:12:31.245Z,19.00
2019-05-16T03:15:02.332Z,19.00
2019-05-16T03:17:33.530Z,19.00
2019-05-16T03:20:02.187Z,19.00
2019-05-16T03:22:31.707Z,19.00
2019-05-16T03:25:01.300Z,18.90
2019-05-16T03:27:30.729Z,18.90
2019-05-16T03:30:01.807Z,19.00
2019-05-16T03:32:33.866Z,19.00
2019-05-16T03:35:04.960Z,19.00
2019-05-16T03:37:30.894Z,19.00
2019-05-16T03:40:00.575Z,19.00
2019-05-16T03:42:31.129Z,19.00
2019-05-16T03:45:02.108Z,19.00
2019-05-16T03:47:31.238Z,19.00
2019-05-16T03:50:00.797Z,19.00
2019-05-16T03:52:31.018Z,19.00
2019-05-16T03:55:01.762Z,19.00
2019-05-16T03:57:30.653Z,19.00
2019-05-16T04:00:00.623Z,19.00
2019-05-16T04:02:30.899Z,19.00
2019-05-16T04:05:01.961Z,19.00
2019-05-16T04:07:31.837Z,19.10
2019-05-16T04:10:02.333Z,19.00
2019-05-16T04:12:31.333Z,19.00
2019-05-16T04:15:01.914Z,19.00
2019-05-16T04:17:31.651Z,19.00
2019-05-16T04:20:02.267Z,19.00
2019-05-16T04:22:31.999Z,18.90
2019-05-16T04:25:01.905Z,19.00
2019-05-16T04:27:31.189Z,19.00
2019-05-16T04:30:01.591Z,19.00
2019-05-16T04:32:31.432Z,19.00
2019-05-16T04:35:02.546Z,19.00
2019-05-16T04:37:31.555Z,19.00
2019-05-16T04:40:01.329Z,19.00
2019-05-16T04:42:31.076Z,19.00
2019-05-16T04:45:01.153Z,19.00
2019-05-16T04:47:31.675Z,19.00
2019-05-16T04:50:01.614Z,19.00
2019-05-16T04:52:30.877Z,19.00
2019-05-16T04:55:00.735Z,19.00
2019-05-16T04:57:31.358Z,18.90
2019-05-16T05:00:02.295Z,18.90
2019-05-16T05:02:31.085Z,18.90
2019-05-16T05:05:01.181Z,18.90
2019-05-16T05:07:31.324Z,18.90
2019-05-16T05:10:00.684Z,18.90
2019-05-16T05:12:31.506Z,18.90
2019-05-16T05:15:01.276Z,18.90
2019-05-16T05:17:30.754Z,18.90
2019-05-16T05:20:01.157Z,18.90
2019-05-16T05:22:30.477Z,19.00
2019-05-16T05:25:00.128Z,19.00
2019-05-16T05:27:30.326Z,19.00
2019-05-16T05:30:01.032Z,19.00
2019-05-16T05:32:30.553Z,18.90
2019-05-16T05:35:00.004Z,18.90
2019-05-16T05:37:29.854Z,18.90
2019-05-16T05:39:59.926Z,18.90
2019-05-16T05:42:30.564Z,19.00
2019-05-16T05:45:00.342Z,19.00
2019-05-16T05:47:30.839Z,19.00
2019-05-16T05:50:00.618Z,19.00
2019-05-16T05:52:30.366Z,19.00
2019-05-16T05:55:00.726Z,19.00
2019-05-16T05:57:29.998Z,19.00
2019-05-16T06:00:00.529Z,19.10
2019-05-16T06:02:31.016Z,19.10
2019-05-16T06:04:59.996Z,19.00
2019-05-16T06:07:30.027Z,19.10
2019-05-16T06:10:00.427Z,19.00
2019-05-16T06:12:30.294Z,19.00
2019-05-16T06:15:08.169Z,19.00
2019-05-16T06:17:30.706Z,19.00
2019-05-16T06:20:00.328Z,19.00
2019-05-16T06:22:29.909Z,19.00
2019-05-16T06:25:00.943Z,19.00
2019-05-16T06:27:30.249Z,19.00
2019-05-16T06:30:00.492Z,19.00
2019-05-16T06:32:30.414Z,19.00
2019-05-16T06:35:00.119Z,19.00
2019-05-16T06:37:31.001Z,19.00
2019-05-16T06:40:00.661Z,19.00
2019-05-16T06:42:29.977Z,19.10
2019-05-16T06:45:00.795Z,19.10
2019-05-16T06:47:30.468Z,19.10
2019-05-16T06:50:00.248Z,19.10
2019-05-16T06:52:30.150Z,19.20
2019-05-16T06:55:00.811Z,19.10
2019-05-16T06:57:30.236Z,19.20
2019-05-16T07:00:00.726Z,19.20
2019-05-16T07:02:33.666Z,19.20
2019-05-16T07:05:01.094Z,19.20
2019-05-16T07:07:30.781Z,19.20
2019-05-16T07:10:04.180Z,19.20
2019-05-16T07:12:33.386Z,19.20
2019-05-16T07:15:01.341Z,19.20
2019-05-16T07:17:30.720Z,19.10
2019-05-16T07:20:00.700Z,19.20
2019-05-16T07:22:31.262Z,19.30
2019-05-16T07:25:00.070Z,19.30
2019-05-16T07:27:30.868Z,19.40
2019-05-16T07:30:01.086Z,19.50
2019-05-16T07:32:30.193Z,19.50
2019-05-16T07:35:00.360Z,19.60
2019-05-16T07:37:31.450Z,19.70
2019-05-16T07:40:08.456Z,19.70
2019-05-16T07:42:30.768Z,19.70
2019-05-16T07:45:00.669Z,19.80
2019-05-16T07:47:30.953Z,19.90
2019-05-16T07:49:59.829Z,19.90
2019-05-16T07:52:35.522Z,19.90
2019-05-16T07:55:03.858Z,20.00
2019-05-16T07:57:30.737Z,20.00
2019-05-16T08:00:00.145Z,20.10
2019-05-16T08:02:31.289Z,20.20
2019-05-16T08:05:00.768Z,20.20
2019-05-16T08:07:33.241Z,20.30
2019-05-16T08:10:00.018Z,20.30
2019-05-16T08:12:32.796Z,20.30
2019-05-16T08:15:00.740Z,20.30
2019-05-16T08:17:31.474Z,20.30
2019-05-16T08:20:00.380Z,20.40
2019-05-16T08:22:30.737Z,20.40
2019-05-16T08:25:00.299Z,20.40
2019-05-16T08:27:31.332Z,20.40
2019-05-16T08:30:02.460Z,20.30
2019-05-16T08:32:31.173Z,20.40
2019-05-16T08:35:00.986Z,20.40
2019-05-16T08:37:38.459Z,20.40
2019-05-16T08:40:00.530Z,20.40
2019-05-16T08:42:32.282Z,20.40
2019-05-16T08:45:02.039Z,20.30
2019-05-16T08:47:31.988Z,20.40
2019-05-16T08:50:00.845Z,20.40
2019-05-16T08:52:31.494Z,20.40
2019-05-16T08:55:03.341Z,20.40
2019-05-16T08:57:32.700Z,20.40
2019-05-16T09:00:01.547Z,20.40
2019-05-16T09:02:36.358Z,20.40
2019-05-16T09:05:04.966Z,20.50
2019-05-16T09:07:32.199Z,20.40
2019-05-16T09:10:00.888Z,20.50
2019-05-16T09:12:29.671Z,20.50
2019-05-16T09:14:59.548Z,20.50
2019-05-16T09:17:28.371Z,20.50
2019-05-16T09:19:57.697Z,20.50
2019-05-16T09:22:28.162Z,20.50
2019-05-16T09:24:57.777Z,20.50
2019-05-16T09:27:27.320Z,20.50
2019-05-16T09:29:56.825Z,20.60
2019-05-16T09:32:27.953Z,20.60
2019-05-16T09:34:57.955Z,20.50
2019-05-16T09:37:26.910Z,20.50
2019-05-16T09:39:57.236Z,20.50
2019-05-16T09:42:27.764Z,20.50
2019-05-16T09:44:57.715Z,20.60
2019-05-16T09:47:28.170Z,20.60
2019-05-16T09:49:58.182Z,20.60
2019-05-16T09:52:27.345Z,20.60
2019-05-16T09:54:57.800Z,20.60
2019-05-16T09:57:27.795Z,20.60
2019-05-16T09:59:57.218Z,20.60
2019-05-16T10:02:27.433Z,20.60
2019-05-16T10:04:57.989Z,20.60
2019-05-16T10:07:28.302Z,20.60
2019-05-16T10:09:57.827Z,20.60
2019-05-16T10:12:27.047Z,20.60
2019-05-16T10:14:55.651Z,20.60
2019-05-16T10:17:24.295Z,20.60
2019-05-16T10:19:52.879Z,20.60
2019-05-16T10:22:21.464Z,20.70
2019-05-16T10:24:50.434Z,20.70
2019-05-16T10:27:19.019Z,20.70
2019-05-16T10:29:48.536Z,20.80
2019-05-16T10:32:17.455Z,20.80
2019-05-16T10:34:46.700Z,20.80
2019-05-16T10:37:17.557Z,20.80
2019-05-16T10:39:46.895Z,20.90
2019-05-16T10:42:28.268Z,20.90
2019-05-16T10:44:48.370Z,20.90
2019-05-16T10:47:17.389Z,21.00
2019-05-16T10:49:47.577Z,21.00
2019-05-16T10:52:16.761Z,21.00
2019-05-16T10:54:55.228Z,21.00
2019-05-16T10:57:16.280Z,21.00
2019-05-16T11:00:05.116Z,21.00
2019-05-16T11:02:16.737Z,20.90
2019-05-16T11:05:00.239Z,20.90
2019-05-16T11:07:16.029Z,20.90
2019-05-16T11:09:55.776Z,20.90
2019-05-16T11:12:19.948Z,20.90
2019-05-16T11:14:47.664Z,20.90
2019-05-16T11:17:18.835Z,20.90
2019-05-16T11:19:46.612Z,20.80
2019-05-16T11:22:15.249Z,20.80
2019-05-16T11:24:44.001Z,20.80
2019-05-16T11:27:13.724Z,20.80
2019-05-16T11:29:42.462Z,20.70
2019-05-16T11:32:11.067Z,20.70
2019-05-16T11:34:40.313Z,20.80
2019-05-16T11:37:08.915Z,20.80
2019-05-16T11:39:37.617Z,20.80
2019-05-16T11:42:08.016Z,20.80
2019-05-16T11:44:38.063Z,20.80
2019-05-16T11:47:08.218Z,20.90
2019-05-16T11:49:38.374Z,20.90
2019-05-16T11:52:07.526Z,20.90
2019-05-16T11:54:37.354Z,20.90
2019-05-16T11:57:07.084Z,20.90
2019-05-16T11:59:37.366Z,20.90
2019-05-16T12:02:06.507Z,20.90
2019-05-16T12:04:37.440Z,20.90
2019-05-16T12:07:07.463Z,20.90
2019-05-16T12:09:47.086Z,20.90
2019-05-16T12:12:08.713Z,21.00
2019-05-16T12:14:37.637Z,20.90
2019-05-16T12:17:07.438Z,20.90
2019-05-16T12:19:43.582Z,20.90
2019-05-16T12:22:07.101Z,20.90
2019-05-16T12:24:38.877Z,20.90
2019-05-16T12:27:08.205Z,20.90
2019-05-16T12:29:37.827Z,20.90
2019-05-16T12:32:07.631Z,20.90
2019-05-16T12:34:36.906Z,20.90
2019-05-16T12:37:07.402Z,21.00
2019-05-16T12:39:37.903Z,20.90
2019-05-16T12:42:08.530Z,20.90
2019-05-16T12:44:37.316Z,20.90
2019-05-16T12:47:07.640Z,20.90
2019-05-16T12:49:36.419Z,21.00
2019-05-16T12:52:06.734Z,20.90
2019-05-16T12:54:37.057Z,21.00
2019-05-16T12:57:05.611Z,20.90
2019-05-16T12:59:34.184Z,20.90
2019-05-16T13:02:06.987Z,20.90
2019-05-16T13:04:37.310Z,20.90
2019-05-16T13:07:08.895Z,21.00
2019-05-16T13:09:37.076Z,21.00
2019-05-16T13:12:06.994Z,21.00
2019-05-16T13:14:40.149Z,21.00
2019-05-16T13:17:07.223Z,21.00
2019-05-16T13:19:43.353Z,21.00
2019-05-16T13:22:07.315Z,21.00
2019-05-16T13:24:38.421Z,21.00
2019-05-16T13:27:08.495Z,21.00
2019-05-16T13:29:37.279Z,21.00
2019-05-16T13:32:07.678Z,21.00
2019-05-16T13:34:38.052Z,21.00
2019-05-16T13:37:07.667Z,21.00
2019-05-16T13:39:36.464Z,21.00
2019-05-16T13:42:07.694Z,21.10
2019-05-16T13:44:37.575Z,21.10
2019-05-16T13:47:07.646Z,21.10
2019-05-16T13:49:38.539Z,21.10
2019-05-16T13:52:07.260Z,21.10
2019-05-16T13:54:36.352Z,21.00
2019-05-16T13:57:06.921Z,21.00
2019-05-16T13:59:37.350Z,21.00
2019-05-16T14:02:07.926Z,21.00
2019-05-16T14:04:37.237Z,21.00
2019-05-16T14:07:07.530Z,21.00
2019-05-16T14:09:37.857Z,21.10
2019-05-16T14:12:06.882Z,21.10
2019-05-16T14:14:41.978Z,21.10
2019-05-16T14:17:12.109Z,21.00
2019-05-16T14:19:37.516Z,20.90
2019-05-16T14:22:07.693Z,21.00
2019-05-16T14:24:37.228Z,21.00
2019-05-16T14:27:06.631Z,21.00
2019-05-16T14:29:37.758Z,21.00
2019-05-16T14:32:09.862Z,21.00
2019-05-16T14:34:38.551Z,20.90
2019-05-16T14:37:07.226Z,20.90
2019-05-16T14:39:38.791Z,20.90
2019-05-16T14:42:06.393Z,20.90
2019-05-16T14:44:58.256Z,20.80
2019-05-16T14:47:06.996Z,20.80
2019-05-16T14:49:37.422Z,20.90
2019-05-16T14:52:06.208Z,20.80
2019-05-16T14:54:37.539Z,20.80
2019-05-16T14:57:05.471Z,20.90
2019-05-16T14:59:36.325Z,20.90
2019-05-16T15:02:06.900Z,20.90
2019-05-16T15:04:37.421Z,20.90
2019-05-16T15:07:07.018Z,20.80
2019-05-16T15:09:38.074Z,20.80
2019-05-16T15:12:07.612Z,20.80
2019-05-16T15:14:37.564Z,20.70
2019-05-16T15:17:07.017Z,20.70
2019-05-16T15:19:35.879Z,20.60
2019-05-16T15:22:07.946Z,20.60
2019-05-16T15:24:37.214Z,20.60
2019-05-16T15:27:08.309Z,20.60
2019-05-16T15:29:37.881Z,20.50
2019-05-16T15:32:07.084Z,20.50
2019-05-16T15:34:38.046Z,20.50
2019-05-16T15:37:07.852Z,20.50
2019-05-16T15:39:37.384Z,20.50
2019-05-16T15:42:08.168Z,20.50
2019-05-16T15:44:38.279Z,20.40
2019-05-16T15:47:08.161Z,20.40
2019-05-16T15:49:37.738Z,20.40
2019-05-16T15:52:07.274Z,20.40
2019-05-16T15:54:37.657Z,20.40
2019-05-16T15:57:06.778Z,20.30
2019-05-16T15:59:37.572Z,20.30
2019-05-16T16:02:07.294Z,20.30
2019-05-16T16:04:37.389Z,20.30
2019-05-16T16:07:07.728Z,20.30
2019-05-16T16:09:37.898Z,20.30
2019-05-16T16:12:10.455Z,20.30
2019-05-16T16:14:37.382Z,20.30
2019-05-16T16:17:06.703Z,20.30
2019-05-16T16:19:37.168Z,20.20
2019-05-16T16:22:07.541Z,20.20
2019-05-16T16:24:36.512Z,20.20
2019-05-16T16:27:07.307Z,20.20
2019-05-16T16:29:36.760Z,20.20
2019-05-16T16:32:06.466Z,20.20
2019-05-16T16:34:36.736Z,20.20
2019-05-16T16:37:07.554Z,20.10
2019-05-16T16:39:37.729Z,20.10
2019-05-16T16:42:07.611Z,20.20
2019-05-16T16:44:36.612Z,20.10
2019-05-16T16:47:06.742Z,20.20
2019-05-16T16:49:39.733Z,20.10
2019-05-16T16:52:07.577Z,20.10
2019-05-16T16:54:36.995Z,20.10
2019-05-16T16:57:07.745Z,20.10
2019-05-16T16:59:37.231Z,20.10
2019-05-16T17:02:06.090Z,20.10
2019-05-16T17:04:38.305Z,20.10
2019-05-16T17:07:05.043Z,20.10
2019-05-16T17:09:33.653Z,20.10
2019-05-16T17:12:02.313Z,20.10
2019-05-16T17:14:31.027Z,20.10
2019-05-16T17:16:59.675Z,20.10
2019-05-16T17:19:28.242Z,20.10
2019-05-16T17:22:11.452Z,20.00
2019-05-16T17:24:27.861Z,20.00
2019-05-16T17:26:57.751Z,20.00
2019-05-16T17:29:27.806Z,20.00
2019-05-16T17:32:05.554Z,20.00
2019-05-16T17:34:27.035Z,20.00
2019-05-16T17:36:57.160Z,20.00
2019-05-16T17:39:27.470Z,20.00
2019-05-16T17:41:58.008Z,20.10
2019-05-16T17:44:27.178Z,20.00
2019-05-16T17:46:57.466Z,20.10
2019-05-16T17:49:26.704Z,20.10
2019-05-16T17:51:55.748Z,20.00
2019-05-16T17:54:26.595Z,20.00
2019-05-16T17:56:56.756Z,19.90
2019-05-16T17:59:27.624Z,19.90
2019-05-16T18:01:56.958Z,19.90
2019-05-16T18:04:26.671Z,19.90
2019-05-16T18:06:57.568Z,20.00
2019-05-16T18:09:27.843Z,20.00
2019-05-16T18:11:57.406Z,20.10
2019-05-16T18:14:26.415Z,20.10
2019-05-16T18:16:59.658Z,20.00
2019-05-16T18:19:26.536Z,20.10
2019-05-16T18:21:57.083Z,20.00
2019-05-16T18:24:27.465Z,20.00
2019-05-16T18:26:57.178Z,20.00
2019-05-16T18:29:26.921Z,19.90
2019-05-16T18:31:55.890Z,20.00
2019-05-16T18:34:24.456Z,20.00
2019-05-16T18:36:53.053Z,20.00
2019-05-16T18:39:21.719Z,20.00
2019-05-16T18:41:50.580Z,20.00
2019-05-16T18:44:19.143Z,19.90
2019-05-16T18:46:47.723Z,19.90
2019-05-16T18:49:16.299Z,20.00
2019-05-16T18:51:46.512Z,20.00
2019-05-16T18:54:17.350Z,20.00
2019-05-16T18:56:47.319Z,20.00
2019-05-16T18:59:16.832Z,20.00
2019-05-16T19:01:46.892Z,20.00
2019-05-16T19:04:17.501Z,19.90
2019-05-16T19:06:46.050Z,19.90
2019-05-16T19:09:16.593Z,19.90
2019-05-16T19:11:45.439Z,19.90
2019-05-16T19:14:16.730Z,19.90
2019-05-16T19:16:44.387Z,19.90
2019-05-16T19:19:12.950Z,19.90
2019-05-16T19:21:41.527Z,19.90
2019-05-16T19:24:10.245Z,19.90
2019-05-16T19:26:40.305Z,19.90
2019-05-16T19:29:09.046Z,19.90
2019-05-16T19:31:39.100Z,19.90
2019-05-16T19:34:08.111Z,19.90
2019-05-16T19:36:39.350Z,19.90
2019-05-16T19:39:07.706Z,19.90
2019-05-16T19:41:38.670Z,19.80
2019-05-16T19:44:06.867Z,19.80
2019-05-16T19:46:35.559Z,19.80
2019-05-16T19:49:06.340Z,19.80
2019-05-16T19:51:36.212Z,19.80
2019-05-16T19:54:07.008Z,19.80
2019-05-16T19:56:37.387Z,19.80
2019-05-16T19:59:06.643Z,19.80
2019-05-16T20:01:36.933Z,19.80
2019-05-16T20:04:05.810Z,19.80
2019-05-16T20:06:36.779Z,19.80
2019-05-16T20:09:07.214Z,19.80
2019-05-16T20:11:36.983Z,19.80
2019-05-16T20:14:07.482Z,19.80
2019-05-16T20:16:36.729Z,19.80
2019-05-16T20:19:05.458Z,19.80
2019-05-16T20:21:36.706Z,19.80
2019-05-16T20:24:04.335Z,19.80
2019-05-16T20:26:32.911Z,19.80
2019-05-16T20:29:01.492Z,19.80
2019-05-16T20:31:30.066Z,19.80
2019-05-16T20:33:58.646Z,19.80
2019-05-16T20:36:27.241Z,19.80
2019-05-16T20:38:55.807Z,19.80
2019-05-16T20:41:27.255Z,19.80
2019-05-16T20:43:57.143Z,19.80
2019-05-16T20:46:25.656Z,19.80
2019-05-16T20:48:58.488Z,19.80
2019-05-16T20:51:26.903Z,19.80
2019-05-16T20:53:57.594Z,19.80
2019-05-16T20:56:26.562Z,19.80
2019-05-16T20:58:57.365Z,19.80
2019-05-16T21:01:26.581Z,19.80
2019-05-16T21:03:57.284Z,19.80
2019-05-16T21:06:26.454Z,19.80
2019-05-16T21:08:57.419Z,19.80
2019-05-16T21:11:26.407Z,19.80
2019-05-16T21:13:56.542Z,19.80
2019-05-16T21:16:27.006Z,19.80
2019-05-16T21:18:57.459Z,19.80
2019-05-16T21:21:27.423Z,19.80
2019-05-16T21:23:56.445Z,19.80
2019-05-16T21:26:26.287Z,19.80
2019-05-16T21:28:56.835Z,19.80
2019-05-16T21:31:27.432Z,19.80
2019-05-16T21:33:56.489Z,19.70
2019-05-16T21:36:27.414Z,19.70
2019-05-16T21:38:55.982Z,19.70
2019-05-16T21:41:26.977Z,19.70
2019-05-16T21:43:56.266Z,19.70
2019-05-16T21:46:27.120Z,19.70
2019-05-16T21:48:56.739Z,19.70
2019-05-16T21:51:26.774Z,19.70
2019-05-16T21:53:56.347Z,19.70
2019-05-16T21:56:26.576Z,19.70
2019-05-16T21:58:57.270Z,19.70
2019-05-16T22:01:26.756Z,19.70
2019-05-16T22:03:56.726Z,19.70
2019-05-16T22:06:25.468Z,19.70
2019-05-16T22:08:54.034Z,19.70
2019-05-16T22:11:22.614Z,19.70
2019-05-16T22:13:51.191Z,19.70
2019-05-16T22:16:19.765Z,19.70
2019-05-16T22:18:48.403Z,19.70
2019-05-16T22:21:16.989Z,19.70
2019-05-16T22:23:46.521Z,19.70
2019-05-16T22:26:16.871Z,19.70
2019-05-16T22:28:46.633Z,19.70
2019-05-16T22:31:16.504Z,19.70
2019-05-16T22:33:46.935Z,19.70
2019-05-16T22:36:17.373Z,19.70
2019-05-16T22:38:46.151Z,19.70
2019-05-16T22:41:17.074Z,19.60
2019-05-16T22:43:46.672Z,19.70
2019-05-16T22:46:17.724Z,19.70
2019-05-16T22:48:46.825Z,19.60
2019-05-16T22:51:16.532Z,19.60
2019-05-16T22:53:45.239Z,19.60
2019-05-16T22:56:13.818Z,19.60
2019-05-16T22:58:42.752Z,19.60
2019-05-16T23:01:11.395Z,19.60
2019-05-16T23:03:39.961Z,19.60
2019-05-16T23:06:08.894Z,19.60
2019-05-16T23:08:37.479Z,19.60
2019-05-16T23:11:07.282Z,19.60
2019-05-16T23:13:36.207Z,19.60
2019-05-16T23:16:06.819Z,19.60
2019-05-16T23:18:37.274Z,19.60
2019-05-16T23:21:06.379Z,19.60
2019-05-16T23:23:37.004Z,19.60
2019-05-16T23:26:06.365Z,19.60
2019-05-16T23:28:36.805Z,19.60
2019-05-16T23:31:05.657Z,19.60
2019-05-16T23:33:36.351Z,19.60
2019-05-16T23:36:06.849Z,19.60
2019-05-16T23:38:36.786Z,19.60
2019-05-16T23:41:06.596Z,19.60
2019-05-16T23:43:37.390Z,19.50
2019-05-16T23:46:07.069Z,19.50
2019-05-16T23:48:36.574Z,19.50
2019-05-16T23:51:07.733Z,19.50
2019-05-16T23:53:37.098Z,19.50
2019-05-16T23:56:07.418Z,19.50
2019-05-16T23:58:36.946Z,19.50
